Time;durP1;ratioP1;P1;durP2;ratioP2;P2;SDS_P1;SDS_P2;PMS_P1;PMS_P2;Temp;Humidity;BMP_temperature;BMP_pressure;BME280_temperature;BME280_humidity;BME280_pressure;Samples;Min_cycle;Max_cycle;Signal;HPM_P1;HPM_P2
2023/01/21 00:01:13;;;;;;;;;27.67;23.00;;;;;1.29;58.58;99517.75;5088928;27;45510;-76
2023/01/21 00:03:39;;;;;;;;;31.00;28.67;;;;;1.27;58.67;99516.88;5093801;27;45494;-76
2023/01/21 00:06:05;;;;;;;;;32.67;25.67;;;;;1.28;58.97;99516.03;5092825;27;45707;-76
2023/01/21 00:08:30;;;;;;;;;31.33;25.00;;;;;1.27;59.06;99505.63;5094749;27;45380;-76
2023/01/21 00:10:56;;;;;;;;;29.00;26.67;;;;;1.27;59.18;99510.81;5087971;27;45487;-76
2023/01/21 00:13:21;;;;;;;;;30.67;29.00;;;;;1.25;59.14;99507.34;5094327;27;45492;-76
2023/01/21 00:15:47;;;;;;;;;37.33;26.00;;;;;1.24;59.48;99510.81;5069460;27;47639;-77
2023/01/21 00:18:14;;;;;;;;;27.00;24.00;;;;;1.21;59.54;99508.19;5095319;27;45388;-76
2023/01/21 00:20:39;;;;;;;;;32.00;28.00;;;;;1.20;59.42;99503.84;5092788;27;45377;-76
2023/01/21 00:23:04;;;;;;;;;26.67;25.00;;;;;1.20;59.56;99504.72;5093806;27;45306;-75
2023/01/21 00:25:30;;;;;;;;;31.33;25.33;;;;;1.19;59.56;99499.53;5071041;27;48186;-77
2023/01/21 00:27:56;;;;;;;;;25.33;23.67;;;;;1.20;59.78;99496.94;5095768;27;45443;-77
2023/01/21 00:30:22;;;;;;;;;32.67;27.00;;;;;1.20;59.58;99496.94;5091813;27;45544;-76
2023/01/21 00:32:48;;;;;;;;;35.00;32.33;;;;;1.19;59.70;99496.94;5091400;27;45490;-77
2023/01/21 00:35:13;;;;;;;;;28.33;24.33;;;;;1.20;59.73;99496.94;5066137;27;47320;-75
2023/01/21 00:37:42;;;;;;;;;36.67;26.00;;;;;1.22;59.80;99496.94;5092071;27;45454;-77
2023/01/21 00:40:08;;;;;;;;;38.33;31.67;;;;;1.22;59.88;99499.53;5061786;27;45593;-77
2023/01/21 00:42:33;;;;;;;;;26.67;26.33;;;;;1.21;59.90;99496.06;5085473;27;45553;-77
2023/01/21 00:44:58;;;;;;;;;20.67;20.67;;;;;1.22;59.79;99499.53;5070842;27;46427;-77
2023/01/21 00:47:24;;;;;;;;;34.33;29.00;;;;;1.22;59.51;99494.34;5095141;27;45400;-76
2023/01/21 00:49:50;;;;;;;;;29.67;24.00;;;;;1.20;59.76;99486.56;5092773;27;45465;-76
2023/01/21 00:52:15;;;;;;;;;8.33;2.67;;;;;1.19;60.09;99489.13;5093825;27;45626;-76
2023/01/21 00:54:40;;;;;;;;;31.67;26.00;;;;;1.15;59.90;99497.81;5080939;27;47299;-76
2023/01/21 00:57:06;;;;;;;;;28.67;23.67;;;;;1.12;59.58;99495.19;5094250;27;45473;-76
2023/01/21 00:59:32;;;;;;;;;22.33;20.33;;;;;1.10;59.94;99489.13;5093957;27;45374;-76
2023/01/21 01:01:57;;;;;;;;;24.00;21.67;;;;;1.09;60.08;99489.97;5118513;27;45599;-76
2023/01/21 01:04:23;;;;;;;;;24.33;19.67;;;;;1.07;60.19;99489.09;5087257;27;45777;-76
2023/01/21 01:06:48;;;;;;;;;25.67;22.33;;;;;1.05;60.14;99486.50;5110233;27;45464;-76
2023/01/21 01:09:14;;;;;;;;;28.33;23.00;;;;;1.03;60.01;99488.22;5089093;27;45459;-76
2023/01/21 01:11:39;;;;;;;;;25.00;25.00;;;;;1.02;60.25;99487.34;5083719;27;45609;-76
2023/01/21 01:14:05;;;;;;;;;20.67;16.00;;;;;1.02;60.37;99479.56;5092639;27;46543;-76
2023/01/21 01:16:31;;;;;;;;;20.00;18.67;;;;;1.00;60.17;99476.13;5092846;27;45423;-76
2023/01/21 01:18:56;;;;;;;;;26.67;22.00;;;;;1.00;60.34;99478.72;5083854;27;45924;-76
2023/01/21 01:21:22;;;;;;;;;16.67;16.00;;;;;1.00;60.15;99477.84;5094947;27;45360;-75
2023/01/21 01:23:50;;;;;;;;;24.33;18.67;;;;;1.01;60.40;99476.97;5094498;27;45664;-76
2023/01/21 01:26:18;;;;;;;;;22.33;19.67;;;;;1.01;60.20;99479.56;5094104;27;45433;-76
2023/01/21 01:28:44;;;;;;;;;26.00;25.33;;;;;0.99;60.24;99476.13;5094185;27;45459;-77
2023/01/21 01:31:16;;;;;;;;;24.00;21.00;;;;;0.98;60.59;99477.84;5098959;27;45542;-76
2023/01/21 01:33:42;;;;;;;;;21.00;19.67;;;;;0.97;60.76;99470.03;5093011;27;45518;-77
2023/01/21 01:36:12;;;;;;;;;23.33;19.00;;;;;0.96;60.53;99466.59;5089214;27;45538;-75
2023/01/21 01:38:38;;;;;;;;;22.00;19.00;;;;;0.96;60.65;99465.72;5083810;27;45574;-75
2023/01/21 01:41:03;;;;;;;;;25.67;21.67;;;;;0.95;60.55;99467.44;5098391;27;45441;-75
2023/01/21 01:43:58;;;;;;;;;20.00;17.67;;;;;0.92;60.51;99464.81;5080796;27;46749;-75
2023/01/21 01:46:27;;;;;;;;;16.67;15.67;;;;;0.94;60.49;99462.25;5093911;27;45406;-75
2023/01/21 01:49:00;;;;;;;;;25.67;20.00;;;;;0.95;60.42;99466.56;5094222;27;45462;-75
2023/01/21 01:51:35;;;;;;;;;18.67;17.00;;;;;0.94;60.56;99467.44;5089718;27;45400;-75
2023/01/21 01:54:01;;;;;;;;;20.00;17.33;;;;;0.94;60.33;99463.13;5092828;27;47133;-75
2023/01/21 01:56:28;;;;;;;;;27.67;20.67;;;;;0.94;60.37;99462.25;5107509;27;46389;-75
2023/01/21 01:58:54;;;;;;;;;22.33;20.00;;;;;0.91;60.52;99460.50;5091981;27;45400;-75
2023/01/21 02:01:19;;;;;;;;;18.67;18.67;;;;;0.88;60.73;99465.66;5087726;27;45420;-75
2023/01/21 02:03:53;;;;;;;;;13.33;11.67;;;;;0.85;60.52;99463.06;5093163;27;45423;-75
2023/01/21 02:06:19;;;;;;;;;19.67;19.67;;;;;0.84;60.78;99466.50;5077408;27;45590;-75
2023/01/21 02:08:46;;;;;;;;;24.00;17.67;;;;;0.82;60.56;99464.78;5092787;27;45440;-76
2023/01/21 02:11:18;;;;;;;;;19.33;17.00;;;;;0.80;60.63;99459.59;5084017;27;45453;-75
2023/01/21 02:13:53;;;;;;;;;20.00;16.67;;;;;0.78;60.61;99460.44;5091271;27;45514;-75
2023/01/21 02:16:34;;;;;;;;;16.33;15.33;;;;;0.77;60.36;99454.38;5087761;27;45433;-75
2023/01/21 02:19:09;;;;;;;;;24.33;21.67;;;;;0.77;60.59;99463.91;5093438;27;45372;-75
2023/01/21 02:21:52;;;;;;;;;16.67;15.00;;;;;0.76;60.62;99460.44;5094488;27;45568;-75
2023/01/21 02:24:33;;;;;;;;;20.00;17.67;;;;;0.75;60.61;99450.91;5085898;27;46877;-75
2023/01/21 02:27:26;;;;;;;;;25.67;18.33;;;;;0.77;60.80;99445.75;5090037;27;45645;-75
2023/01/21 02:30:15;;;;;;;;;17.33;16.00;;;;;0.76;60.23;99455.25;5087181;27;45574;-75
2023/01/21 02:33:02;;;;;;;;;14.33;14.33;;;;;0.76;60.36;99451.78;5093650;27;45471;-75
2023/01/21 02:35:46;;;;;;;;;22.33;15.00;;;;;0.73;60.20;99450.03;5091649;27;45639;-75
2023/01/21 02:38:25;;;;;;;;;12.67;12.67;;;;;0.69;60.05;99443.09;5075148;27;45386;-75
2023/01/21 02:40:56;;;;;;;;;20.33;13.33;;;;;0.66;60.21;99438.78;5093911;27;45708;-75
2023/01/21 02:44:06;;;;;;;;;18.00;13.67;;;;;0.64;60.35;99440.50;5095993;27;45315;-75
2023/01/21 02:47:13;;;;;;;;;21.67;15.33;;;;;0.61;60.23;99434.44;5057769;28;45535;-76
2023/01/21 02:49:49;;;;;;;;;14.33;9.67;;;;;0.59;60.50;99436.13;4975731;28;45675;-75
2023/01/21 02:52:20;;;;;;;;;18.33;14.67;;;;;0.56;60.73;99434.41;4978260;28;45595;-75
2023/01/21 02:54:55;;;;;;;;;15.33;14.67;;;;;0.53;60.61;99426.59;5046251;27;45588;-76
2023/01/21 02:57:34;;;;;;;;;14.50;12.00;;;;;0.52;60.64;99422.25;5092802;27;45467;-75
2023/01/21 03:00:05;;;;;;;;;19.67;18.67;;;;;0.50;60.40;99423.16;5071031;27;45584;-75
2023/01/21 03:02:30;;;;;;;;;15.00;14.00;;;;;0.49;60.54;99424.88;5097461;27;45399;-75
2023/01/21 03:05:14;;;;;;;;;17.00;14.33;;;;;0.45;60.68;99427.44;5073853;27;45527;-75
2023/01/21 03:07:54;;;;;;;;;16.67;13.00;;;;;0.44;60.81;99417.91;5087129;27;47663;-75
2023/01/21 03:10:51;;;;;;;;;18.00;14.00;;;;;0.43;60.82;99414.44;5085602;27;45478;-75
2023/01/21 03:19:16;;;;;;;;;18.00;16.00;;;;;0.44;60.46;99411.00;5054367;27;45511;-74
2023/01/21 03:21:41;;;;;;;;;15.00;13.00;;;;;0.46;60.72;99408.41;5096268;27;45610;-74
2023/01/21 03:24:10;;;;;;;;;12.67;12.67;;;;;0.47;60.79;99404.97;5092764;27;45307;-75
2023/01/21 03:26:40;;;;;;;;;8.33;8.33;;;;;0.47;60.66;99399.78;5077655;27;45790;-76
2023/01/21 03:29:13;;;;;;;;;14.67;12.00;;;;;0.46;60.88;99404.09;5094253;27;45482;-76
2023/01/21 03:31:41;;;;;;;;;16.00;15.00;;;;;0.48;60.67;99399.78;5091781;27;45546;-76
2023/01/21 03:34:11;;;;;;;;;12.33;12.33;;;;;0.48;60.75;99398.91;5073552;27;45401;-76
2023/01/21 03:36:42;;;;;;;;;15.00;15.00;;;;;0.49;60.58;99396.34;5097050;27;45546;-76
2023/01/21 03:39:20;;;;;;;;;16.00;15.67;;;;;0.49;61.10;99398.06;5092981;27;45498;-76
2023/01/21 03:41:46;;;;;;;;;15.33;12.00;;;;;0.45;61.03;99389.41;5074785;27;45464;-76
2023/01/21 03:44:12;;;;;;;;;13.33;12.00;;;;;0.43;60.72;99396.31;5074223;27;45369;-76
2023/01/21 03:46:52;;;;;;;;;14.00;11.67;;;;;0.42;60.60;99383.31;5078159;27;45495;-76
2023/01/21 03:49:30;;;;;;;;;16.67;12.67;;;;;0.38;60.82;99387.63;5096078;27;47353;-76
2023/01/21 03:51:59;;;;;;;;;12.00;11.67;;;;;0.36;60.94;99386.75;5096299;27;45526;-76
2023/01/21 03:54:25;;;;;;;;;14.00;13.00;;;;;0.32;61.10;99380.69;5092056;27;45545;-76
2023/01/21 03:56:50;;;;;;;;;17.33;12.00;;;;;0.31;60.95;99381.56;5092216;27;45562;-76
2023/01/21 03:59:15;;;;;;;;;19.67;12.67;;;;;0.31;60.74;99384.16;5108356;27;47100;-76
2023/01/21 04:01:41;;;;;;;;;15.00;12.00;;;;;0.28;60.49;99380.66;5094813;27;45420;-77
2023/01/21 04:04:08;;;;;;;;;15.33;13.33;;;;;0.27;60.62;99378.94;5092552;27;45838;-76
2023/01/21 04:06:35;;;;;;;;;16.67;13.00;;;;;0.24;60.38;99374.59;5077567;27;45681;-76
2023/01/21 04:09:02;;;;;;;;;14.67;11.00;;;;;0.21;60.52;99374.56;5078198;27;48481;-76
2023/01/21 04:11:27;;;;;;;;;13.00;13.00;;;;;0.18;60.51;99371.09;5071425;27;45569;-76
2023/01/21 04:13:53;;;;;;;;;13.33;13.00;;;;;0.15;60.54;99368.50;5095468;27;45403;-76
2023/01/21 04:16:18;;;;;;;;;11.67;11.33;;;;;0.14;60.55;99367.63;5091450;27;45602;-76
2023/01/21 04:18:44;;;;;;;;;18.33;13.33;;;;;0.13;60.43;99370.22;5095069;27;46356;-76
2023/01/21 04:21:09;;;;;;;;;17.33;13.33;;;;;0.13;60.68;99373.69;5095219;27;45384;-76
2023/01/21 04:23:34;;;;;;;;;13.67;12.00;;;;;0.11;60.38;99372.81;5095588;27;45360;-75
2023/01/21 04:26:00;;;;;;;;;14.00;12.00;;;;;0.11;60.63;99375.41;5091498;27;45492;-76
2023/01/21 04:28:25;;;;;;;;;14.33;10.67;;;;;0.09;60.65;99374.50;5095523;27;45367;-75
2023/01/21 04:30:51;;;;;;;;;14.33;13.33;;;;;0.10;60.53;99378.84;5091748;27;45353;-75
2023/01/21 04:33:16;;;;;;;;;12.33;11.67;;;;;0.10;60.84;99368.47;5095518;27;45397;-75
2023/01/21 04:35:42;;;;;;;;;15.00;12.00;;;;;0.10;60.65;99376.25;5095275;27;45438;-75
2023/01/21 04:38:07;;;;;;;;;16.67;11.00;;;;;0.11;60.46;99377.13;5077966;27;47228;-75
2023/01/21 04:40:33;;;;;;;;;11.67;11.00;;;;;0.09;60.32;99369.31;5084513;27;45381;-75
2023/01/21 04:42:58;;;;;;;;;14.67;12.67;;;;;0.10;60.25;99372.78;5095449;27;45589;-75
2023/01/21 04:45:24;;;;;;;;;12.67;10.33;;;;;0.09;60.41;99371.06;5093200;27;45435;-75
2023/01/21 04:47:49;;;;;;;;;5.00;4.00;;;;;0.06;60.35;99369.31;5095492;27;46519;-75
2023/01/21 04:50:15;;;;;;;;;15.33;9.67;;;;;0.05;60.17;99371.88;5093636;27;45474;-75
2023/01/21 04:52:41;;;;;;;;;11.33;11.33;;;;;0.02;59.93;99377.03;5095999;27;45537;-75
2023/01/21 04:55:08;;;;;;;;;14.67;11.67;;;;;-0.01;60.05;99368.44;5089179;27;45474;-75
2023/01/21 04:57:34;;;;;;;;;2.00;2.00;;;;;-0.01;59.90;99365.84;5095124;27;46596;-75
2023/01/21 05:00:00;;;;;;;;;16.67;14.00;;;;;-0.01;59.60;99357.19;5090697;27;45490;-75
2023/01/21 05:02:25;;;;;;;;;13.67;9.67;;;;;-0.01;59.90;99358.06;5093944;27;45427;-75
2023/01/21 05:04:50;;;;;;;;;15.00;11.67;;;;;-0.02;59.61;99363.22;5094394;27;45474;-75
2023/01/21 05:07:16;;;;;;;;;12.67;11.33;;;;;-0.03;59.51;99358.91;5095153;27;45354;-75
2023/01/21 05:09:41;;;;;;;;;15.00;13.00;;;;;-0.02;59.45;99355.47;5093564;27;45322;-75
2023/01/21 05:12:08;;;;;;;;;9.67;9.67;;;;;-0.02;59.68;99351.13;5093100;27;46024;-75
2023/01/21 05:14:33;;;;;;;;;8.67;8.67;;;;;-0.01;59.48;99349.41;5091150;27;45333;-75
2023/01/21 05:16:59;;;;;;;;;12.67;10.67;;;;;-0.01;59.31;99347.69;5075538;27;47940;-75
2023/01/21 05:19:24;;;;;;;;;14.00;11.33;;;;;-0.01;59.25;99350.28;5069216;27;45500;-75
2023/01/21 05:21:50;;;;;;;;;12.00;9.67;;;;;-0.02;59.08;99356.31;5086373;27;45797;-75
2023/01/21 05:24:15;;;;;;;;;15.00;9.00;;;;;-0.05;58.86;99351.13;5091862;27;45549;-75
2023/01/21 05:26:41;;;;;;;;;8.00;6.33;;;;;-0.08;59.42;99348.50;5093990;27;46215;-75
2023/01/21 05:29:06;;;;;;;;;12.33;11.67;;;;;-0.10;59.12;99357.97;5092595;27;45579;-76
2023/01/21 05:31:32;;;;;;;;;16.33;14.00;;;;;-0.11;59.31;99358.84;5094423;27;45386;-75
2023/01/21 05:33:57;;;;;;;;;11.00;11.00;;;;;-0.11;59.18;99351.06;5093646;27;45625;-75
2023/01/21 05:36:22;;;;;;;;;12.33;9.33;;;;;-0.13;59.08;99347.59;5092558;27;46349;-75
2023/01/21 05:38:48;;;;;;;;;11.67;10.33;;;;;-0.16;59.17;99337.22;5089195;27;45432;-75
2023/01/21 05:41:13;;;;;;;;;12.00;10.33;;;;;-0.17;59.47;99338.06;5091627;27;45509;-75
2023/01/21 05:43:39;;;;;;;;;15.33;11.00;;;;;-0.19;59.33;99334.63;5093328;27;45397;-75
2023/01/21 05:46:04;;;;;;;;;15.67;11.00;;;;;-0.22;59.38;99332.00;5089614;27;46163;-75
2023/01/21 05:48:30;;;;;;;;;12.00;10.33;;;;;-0.25;59.41;99323.34;5098916;27;45547;-75
2023/01/21 05:50:56;;;;;;;;;11.00;9.67;;;;;-0.26;59.17;99327.66;5073025;27;45464;-75
2023/01/21 05:53:23;;;;;;;;;8.67;8.00;;;;;-0.27;59.16;99331.09;5084826;27;45414;-75
2023/01/21 05:55:55;;;;;;;;;7.67;7.67;;;;;-0.29;59.06;99322.44;5079635;27;47866;-75
2023/01/21 05:58:22;;;;;;;;;14.00;10.67;;;;;-0.31;59.29;99329.34;5094420;27;45353;-75
2023/01/21 06:00:48;;;;;;;;;11.00;10.00;;;;;-0.35;59.06;99330.19;5090318;27;45584;-75
2023/01/21 06:03:15;;;;;;;;;12.00;9.33;;;;;-0.36;59.26;99325.88;5076275;27;45363;-75
2023/01/21 06:05:41;;;;;;;;;11.33;8.00;;;;;-0.40;58.64;99319.81;5091574;27;45475;-76
2023/01/21 06:08:07;;;;;;;;;11.00;8.00;;;;;-0.48;59.08;99318.88;5094711;27;45413;-76
2023/01/21 06:10:33;;;;;;;;;14.00;10.67;;;;;-0.53;59.42;99328.34;5079615;27;45487;-76
2023/01/21 06:12:58;;;;;;;;;10.67;10.67;;;;;-0.54;59.26;99333.50;5088942;27;45355;-76
2023/01/21 06:15:27;;;;;;;;;10.00;9.00;;;;;-0.58;59.38;99336.94;5095627;27;45787;-75
2023/01/21 06:17:52;;;;;;;;;10.00;8.67;;;;;-0.65;59.58;99336.00;5096491;27;45445;-76
2023/01/21 06:20:18;;;;;;;;;16.67;11.33;;;;;-0.68;59.53;99336.00;5091658;27;45472;-76
2023/01/21 06:22:44;;;;;;;;;8.67;8.67;;;;;-0.70;59.57;99332.53;5097666;27;45429;-75
2023/01/21 06:25:09;;;;;;;;;14.67;10.00;;;;;-0.73;59.68;99335.97;5094272;27;45411;-75
2023/01/21 06:27:37;;;;;;;;;11.67;10.67;;;;;-0.73;59.86;99332.50;5097045;27;45408;-75
2023/01/21 06:30:07;;;;;;;;;17.67;7.67;;;;;-0.73;59.85;99330.78;5089131;27;45491;-74
2023/01/21 06:32:33;;;;;;;;;11.67;10.67;;;;;-0.76;59.98;99332.47;5091983;27;45447;-74
2023/01/21 06:34:58;;;;;;;;;13.00;10.67;;;;;-0.78;60.43;99327.28;5093606;27;46148;-74
2023/01/21 06:37:24;;;;;;;;;14.33;11.33;;;;;-0.79;60.26;99337.59;5092858;27;45382;-76
2023/01/21 06:39:49;;;;;;;;;10.00;8.00;;;;;-0.81;60.41;99344.50;5092805;27;45393;-75
2023/01/21 06:42:16;;;;;;;;;16.67;11.67;;;;;-0.82;60.22;99348.81;5095288;27;45550;-75
2023/01/21 06:44:42;;;;;;;;;11.00;11.00;;;;;-0.84;60.35;99341.91;5092902;27;45648;-77
2023/01/21 06:47:08;;;;;;;;;9.33;9.33;;;;;-0.83;60.12;99343.59;5092201;27;45495;-77
2023/01/21 06:49:33;;;;;;;;;12.00;11.00;;;;;-0.84;60.21;99340.16;5090114;27;45744;-76
2023/01/21 06:51:59;;;;;;;;;15.00;13.67;;;;;-0.84;60.18;99341.91;5097411;27;45709;-75
2023/01/21 06:54:24;;;;;;;;;11.33;11.33;;;;;-0.86;60.72;99333.25;5092322;27;46238;-75
2023/01/21 06:56:50;;;;;;;;;11.00;10.33;;;;;-0.90;60.33;99336.66;5095282;27;45492;-75
2023/01/21 06:59:15;;;;;;;;;13.33;11.33;;;;;-0.92;60.46;99331.47;5075296;27;45502;-75
2023/01/21 07:01:40;;;;;;;;;10.33;10.00;;;;;-0.93;60.52;99332.31;5094579;27;45429;-75
2023/01/21 07:04:06;;;;;;;;;15.33;10.33;;;;;-0.94;60.75;99322.81;5093563;27;45453;-76
2023/01/21 07:06:31;;;;;;;;;16.33;14.33;;;;;-0.96;60.63;99327.13;5091362;27;45437;-76
2023/01/21 07:08:56;;;;;;;;;9.33;7.33;;;;;-0.98;60.73;99321.06;5093000;27;45467;-76
2023/01/21 07:11:22;;;;;;;;;13.67;11.33;;;;;-0.99;61.09;99318.44;5091352;27;45621;-76
2023/01/21 07:13:47;;;;;;;;;21.33;14.00;;;;;-1.02;61.31;99316.72;5093290;27;45462;-76
2023/01/21 07:16:13;;;;;;;;;17.00;11.67;;;;;-1.04;61.01;99315.84;5095486;27;45422;-76
2023/01/21 07:18:38;;;;;;;;;13.67;12.33;;;;;-1.05;60.89;99324.44;5095185;27;45569;-76
2023/01/21 07:21:04;;;;;;;;;12.67;10.33;;;;;-1.06;60.97;99326.19;5093711;27;45457;-77
2023/01/21 07:23:29;;;;;;;;;11.33;11.00;;;;;-1.06;60.90;99326.19;5094984;27;46450;-79
2023/01/21 07:25:55;;;;;;;;;13.00;9.00;;;;;-1.08;60.61;99330.47;5065959;27;45847;-77
2023/01/21 07:28:20;;;;;;;;;14.00;11.67;;;;;-1.11;60.57;99330.44;5095387;27;45341;-77
2023/01/21 07:30:46;;;;;;;;;10.00;10.00;;;;;-1.11;60.50;99333.00;5036453;27;1592123;-77
2023/01/21 07:33:11;;;;;;;;;8.33;7.33;;;;;-1.11;60.07;99333.00;5096633;27;47660;-77
2023/01/21 07:35:37;;;;;;;;;17.67;10.00;;;;;-1.11;60.05;99335.59;5095103;27;45498;-76
2023/01/21 07:38:02;;;;;;;;;8.00;7.67;;;;;-1.11;60.04;99337.31;5096277;27;45530;-76
2023/01/21 07:40:28;;;;;;;;;3.33;3.33;;;;;-1.11;59.90;99339.91;5092484;27;45516;-77
2023/01/21 07:42:54;;;;;;;;;8.00;7.67;;;;;-1.12;59.79;99349.38;5095285;27;45774;-77
2023/01/21 07:45:21;;;;;;;;;12.33;11.00;;;;;-1.14;59.81;99343.31;5094255;27;45453;-77
2023/01/21 07:47:47;;;;;;;;;13.67;9.33;;;;;-1.16;60.08;99342.44;5077837;27;45307;-77
2023/01/21 07:50:13;;;;;;;;;11.67;10.00;;;;;-1.20;59.63;99339.81;5087302;27;45418;-77
2023/01/21 07:52:39;;;;;;;;;9.33;7.00;;;;;-1.20;59.90;99345.88;5095781;27;46056;-77
2023/01/21 07:55:05;;;;;;;;;11.67;11.67;;;;;-1.17;60.03;99342.41;5092840;27;45384;-77
2023/01/21 07:57:30;;;;;;;;;10.00;10.00;;;;;-1.19;60.12;99338.97;5094865;27;45441;-77
2023/01/21 07:59:56;;;;;;;;;10.00;8.00;;;;;-1.19;60.00;99339.84;5089167;27;45384;-77
2023/01/21 08:02:21;;;;;;;;;10.33;8.00;;;;;-1.20;60.17;99335.53;5095146;27;46706;-77
2023/01/21 08:04:47;;;;;;;;;13.33;10.00;;;;;-1.18;59.90;99340.72;5095163;27;45533;-77
2023/01/21 08:07:12;;;;;;;;;9.33;9.33;;;;;-1.19;60.05;99334.69;5079244;27;45484;-76
2023/01/21 08:09:38;;;;;;;;;9.67;9.67;;;;;-1.15;59.87;99345.91;5071840;27;45763;-77
2023/01/21 08:12:05;;;;;;;;;12.33;10.33;;;;;-1.09;59.82;99343.38;5093962;27;46303;-77
2023/01/21 08:14:31;;;;;;;;;15.67;15.00;;;;;-1.07;60.09;99354.63;5091526;27;45500;-76
2023/01/21 08:16:57;;;;;;;;;14.67;12.33;;;;;-1.04;59.71;99343.44;5095623;27;45368;-76
2023/01/21 08:19:22;;;;;;;;;14.00;13.33;;;;;-1.01;59.94;99344.34;5094331;27;45360;-76
2023/01/21 08:21:48;;;;;;;;;10.67;10.00;;;;;-0.99;60.01;99344.31;5095231;27;45651;-77
2023/01/21 08:24:13;;;;;;;;;13.00;11.00;;;;;-0.95;60.00;99346.97;5093168;27;45544;-77
2023/01/21 08:26:39;;;;;;;;;13.00;11.67;;;;;-0.90;59.75;99345.28;5095383;27;45452;-77
2023/01/21 08:29:04;;;;;;;;;17.00;13.00;;;;;-0.84;59.75;99347.06;5093015;27;45582;-77
2023/01/21 08:31:30;;;;;;;;;11.33;8.00;;;;;-0.80;59.71;99346.22;5092620;27;46253;-77
2023/01/21 08:33:56;;;;;;;;;19.67;16.33;;;;;-0.77;59.92;99344.53;5088896;27;45424;-77
2023/01/21 08:36:22;;;;;;;;;17.00;14.00;;;;;-0.73;59.96;99348.03;5094699;27;45617;-77
2023/01/21 08:38:55;;;;;;;;;15.33;14.33;;;;;-0.67;59.69;99347.22;5087836;27;45555;-77
2023/01/21 08:41:20;;;;;;;;;18.00;14.00;;;;;-0.62;59.57;99351.56;5093971;27;45464;-77
2023/01/21 08:43:46;;;;;;;;;14.00;13.33;;;;;-0.58;59.74;99350.75;5076073;27;45361;-77
2023/01/21 08:46:12;;;;;;;;;16.33;12.00;;;;;-0.53;59.51;99350.78;5096513;27;45418;-77
2023/01/21 08:48:37;;;;;;;;;14.00;11.33;;;;;-0.47;59.52;99341.31;5080277;27;45530;-76
2023/01/21 08:51:03;;;;;;;;;16.33;13.67;;;;;-0.43;59.41;99345.69;5093302;27;45561;-76
2023/01/21 08:53:29;;;;;;;;;17.00;13.00;;;;;-0.38;59.80;99345.72;5092749;27;45503;-77
2023/01/21 08:56:02;;;;;;;;;15.33;11.67;;;;;-0.29;59.33;99350.94;5087416;27;45414;-77
2023/01/21 08:58:29;;;;;;;;;18.00;13.00;;;;;-0.20;59.56;99350.16;5093019;27;45580;-77
2023/01/21 09:00:55;;;;;;;;;14.67;11.00;;;;;-0.12;59.32;99340.69;5090346;27;46358;-77
2023/01/21 09:03:21;;;;;;;;;15.00;14.33;;;;;-0.05;59.36;99348.53;5093043;27;45475;-77
2023/01/21 09:05:50;;;;;;;;;19.33;12.00;;;;;0.01;59.13;99345.06;5090559;27;45308;-77
2023/01/21 09:08:16;;;;;;;;;14.00;12.00;;;;;0.05;58.90;99335.59;5094010;27;45310;-77
2023/01/21 09:11:00;;;;;;;;;20.67;14.67;;;;;0.10;58.76;99341.69;5089940;27;45499;-78
2023/01/21 09:13:27;;;;;;;;;14.67;14.67;;;;;0.16;58.70;99340.00;5093370;27;45383;-78
2023/01/21 09:15:52;;;;;;;;;14.67;12.00;;;;;0.22;58.51;99334.84;5092908;27;45535;-79
2023/01/21 09:18:18;;;;;;;;;15.67;11.67;;;;;0.28;58.41;99334.00;5076548;27;45559;-78
2023/01/21 09:20:43;;;;;;;;;9.67;4.67;;;;;0.30;58.03;99340.94;5092384;27;46436;-79
2023/01/21 09:23:24;;;;;;;;;15.00;12.67;;;;;0.33;58.20;99342.69;5093470;27;45595;-78
2023/01/21 09:25:59;;;;;;;;;16.00;12.67;;;;;0.38;57.86;99350.44;5092200;27;45501;-78
2023/01/21 09:28:24;;;;;;;;;13.67;12.33;;;;;0.41;58.34;99350.47;5090385;27;45363;-79
2023/01/21 09:30:55;;;;;;;;;16.67;14.67;;;;;0.46;58.27;99352.22;5089587;27;46006;-78
2023/01/21 09:33:21;;;;;;;;;16.00;12.00;;;;;0.50;58.07;99351.38;5094145;27;45360;-79
2023/01/21 09:35:52;;;;;;;;;16.00;12.33;;;;;0.55;57.71;99354.84;5089379;27;45472;-78
2023/01/21 09:38:17;;;;;;;;;15.67;14.00;;;;;0.60;57.41;99366.13;5085945;27;45569;-79
2023/01/21 09:40:44;;;;;;;;;16.67;14.00;;;;;0.64;57.83;99352.31;5087120;27;47388;-78
2023/01/21 09:43:16;;;;;;;;;13.67;12.67;;;;;0.75;57.79;99361.84;5093869;27;45531;-78
2023/01/21 09:45:44;;;;;;;;;11.67;11.67;;;;;0.82;57.61;99354.09;5069609;27;45619;-78
2023/01/21 09:48:18;;;;;;;;;19.33;12.33;;;;;0.91;57.50;99359.28;5090347;27;45803;-78
2023/01/21 09:50:48;;;;;;;;;20.00;13.33;;;;;0.97;57.38;99356.72;5086130;27;45711;-78
2023/01/21 09:53:25;;;;;;;;;18.33;15.67;;;;;1.04;57.36;99344.59;5078631;27;45439;-78
2023/01/21 09:55:52;;;;;;;;;18.67;14.33;;;;;1.10;57.27;99344.59;5086771;27;45357;-78
2023/01/21 09:58:22;;;;;;;;;22.67;16.33;;;;;1.16;57.30;99354.16;5093443;27;45481;-78
2023/01/21 10:01:02;;;;;;;;;12.00;12.00;;;;;1.22;57.00;99352.41;5092034;27;46923;-79
2023/01/21 10:03:37;;;;;;;;;19.00;15.67;;;;;1.26;57.37;99340.28;5091940;27;45421;-78
2023/01/21 10:06:19;;;;;;;;;21.00;15.00;;;;;1.27;56.92;99340.28;5092497;27;45567;-78
2023/01/21 10:09:28;;;;;;;;;14.67;11.00;;;;;1.27;56.83;99331.63;5091946;27;45559;-78
2023/01/21 10:12:21;;;;;;;;;12.00;8.00;;;;;1.27;56.99;99334.22;5075525;27;46331;-78
2023/01/21 10:14:58;;;;;;;;;16.00;16.00;;;;;1.31;57.08;99328.19;5085733;27;45418;-78
2023/01/21 10:17:28;;;;;;;;;16.33;14.67;;;;;1.30;57.19;99322.13;5091901;27;45546;-78
2023/01/21 10:20:16;;;;;;;;;16.00;13.00;;;;;1.34;57.24;99321.22;5110942;27;45478;-78
2023/01/21 10:22:51;;;;;;;;;17.00;15.00;;;;;1.38;56.68;99316.91;5093395;27;45615;-78
2023/01/21 10:25:24;;;;;;;;;18.00;15.67;;;;;1.45;56.92;99307.41;5092536;27;45489;-78
2023/01/21 10:27:51;;;;;;;;;18.33;16.33;;;;;1.50;56.71;99309.13;5091739;27;45458;-79
2023/01/21 10:30:28;;;;;;;;;16.00;13.00;;;;;1.60;56.64;99307.38;5094808;27;45601;-78
2023/01/21 10:32:55;;;;;;;;;14.33;13.67;;;;;1.68;56.72;99300.41;5086533;27;45546;-78
2023/01/21 10:35:37;;;;;;;;;15.33;15.00;;;;;1.74;56.15;99306.47;5079983;27;45467;-78
2023/01/21 10:38:12;;;;;;;;;17.00;15.67;;;;;1.84;56.21;99304.75;5091773;27;45431;-78
2023/01/21 10:40:55;;;;;;;;;18.00;16.00;;;;;1.94;56.59;99298.66;5089516;27;45545;-78
2023/01/21 10:44:20;;;;;;;;;21.00;15.67;;;;;2.03;55.95;99293.41;5091175;27;45324;-78
2023/01/21 10:47:16;;;;;;;;;19.33;17.33;;;;;2.04;55.95;99289.06;5032691;28;45447;-80
2023/01/21 10:49:53;;;;;;;;;21.00;19.33;;;;;2.00;55.76;99283.03;5022558;28;45480;-78
2023/01/21 10:52:38;;;;;;;;;20.00;17.00;;;;;2.01;56.19;99282.16;5086660;27;45420;-78
2023/01/21 10:55:19;;;;;;;;;25.33;23.67;;;;;2.01;56.06;99271.75;5088552;27;45471;-79
2023/01/21 10:57:53;;;;;;;;;16.67;16.33;;;;;2.02;55.54;99275.22;5082282;27;45528;-80
2023/01/21 11:00:28;;;;;;;;;23.33;18.33;;;;;2.05;55.44;99275.19;5070212;27;45416;-80
2023/01/21 11:02:58;;;;;;;;;21.33;17.33;;;;;2.14;55.44;99269.13;5076056;27;45519;-80
2023/01/21 11:05:25;;;;;;;;;18.00;18.00;;;;;2.20;55.06;99275.13;5092734;27;46516;-79
2023/01/21 11:07:51;;;;;;;;;23.00;14.00;;;;;2.26;55.03;99269.94;5093014;27;45532;-79
2023/01/21 11:10:21;;;;;;;;;15.33;14.00;;;;;2.33;55.20;99258.63;5076976;27;45465;-80
2023/01/21 11:12:48;;;;;;;;;21.00;15.33;;;;;2.41;55.01;99261.19;5076582;27;45544;-80
2023/01/21 11:15:19;;;;;;;;;20.67;17.67;;;;;2.51;54.90;99256.81;5094877;27;45717;-80
2023/01/21 11:17:47;;;;;;;;;23.00;19.33;;;;;2.59;55.02;99258.47;5080361;27;45456;-80
2023/01/21 11:20:24;;;;;;;;;20.33;16.67;;;;;2.63;54.94;99252.38;5094413;27;45416;-80
2023/01/21 11:22:50;;;;;;;;;19.67;18.33;;;;;2.67;55.17;99245.44;5093375;27;45455;-78
2023/01/21 11:25:41;;;;;;;;;22.67;18.67;;;;;2.71;54.96;99247.97;5072126;27;47531;-81
2023/01/21 11:28:28;;;;;;;;;13.00;11.00;;;;;2.74;54.65;99249.69;5081293;27;45321;-78
2023/01/21 11:31:03;;;;;;;;;16.33;13.33;;;;;2.77;54.89;99247.94;5093690;27;45585;-79
2023/01/21 11:33:28;;;;;;;;;21.67;17.67;;;;;2.80;54.39;99249.66;5092389;27;45577;-79
2023/01/21 11:35:55;;;;;;;;;18.00;15.00;;;;;2.83;54.35;99260.06;5095171;27;45902;-80
2023/01/21 11:38:25;;;;;;;;;20.00;17.33;;;;;2.85;54.85;99239.22;5088663;27;45405;-79
2023/01/21 11:41:13;;;;;;;;;20.67;17.33;;;;;2.80;54.88;99239.25;5097286;27;45472;-80